Time;durP1;ratioP1;P1;durP2;ratioP2;P2;SDS_P1;SDS_P2;PMS_P1;PMS_P2;Temp;Humidity;BMP_temperature;BMP_pressure;BME280_temperature;BME280_humidity;BME280_pressure;Samples;Min_cycle;Max_cycle;Signal;HPM_P1;HPM_P2
2021/09/25 04:01:26;;;;;;;19.43;16.00;;;16.20;99.90;;;;;;5481411;23;20493;-71
2021/09/25 04:03:54;;;;;;;23.33;14.63;;;16.10;99.90;;;;;;4927722;29;20473;-72
2021/09/25 04:06:23;;;;;;;16.10;14.10;;;16.20;99.90;;;;;;4936321;28;20552;-71
2021/09/25 04:08:49;;;;;;;18.17;14.80;;;16.10;99.90;;;;;;4937179;29;20497;-71
2021/09/25 04:11:16;;;;;;;25.50;15.70;;;16.20;99.90;;;;;;4937136;29;20517;-72
2021/09/25 04:13:43;;;;;;;18.80;14.90;;;16.20;99.90;;;;;;4936984;29;20532;-72
2021/09/25 04:16:09;;;;;;;18.33;14.27;;;16.10;99.90;;;;;;4948899;29;20465;-71
2021/09/25 04:18:37;;;;;;;18.23;15.20;;;16.10;99.90;;;;;;4951664;29;20477;-71
2021/09/25 04:21:04;;;;;;;20.73;16.00;;;16.10;99.90;;;;;;4950783;29;20489;-71
2021/09/25 04:23:30;;;;;;;18.93;15.23;;;16.10;99.90;;;;;;4951351;29;20465;-71
2021/09/25 04:25:57;;;;;;;21.80;16.43;;;16.10;99.90;;;;;;4951536;29;20517;-71
2021/09/25 04:28:24;;;;;;;21.60;15.13;;;16.10;99.90;;;;;;4950799;29;20465;-71
2021/09/25 04:30:50;;;;;;;23.77;15.83;;;16.00;99.90;;;;;;4949317;29;20534;-71
2021/09/25 04:33:17;;;;;;;19.77;15.60;;;16.00;99.90;;;;;;4951846;29;20565;-72
2021/09/25 04:35:45;;;;;;;17.40;14.33;;;16.00;99.90;;;;;;4948508;29;20484;-71
2021/09/25 04:38:12;;;;;;;19.30;15.20;;;16.00;99.90;;;;;;4951172;29;20465;-71
2021/09/25 04:40:38;;;;;;;19.50;14.20;;;16.00;99.90;;;;;;4949632;29;20501;-71
2021/09/25 04:43:05;;;;;;;21.83;15.23;;;15.90;99.90;;;;;;4944272;29;20542;-71
2021/09/25 04:45:32;;;;;;;20.60;15.40;;;15.90;99.90;;;;;;4931422;29;20814;-72
2021/09/25 04:47:58;;;;;;;21.07;15.53;;;15.90;99.90;;;;;;4917978;29;20463;-72
2021/09/25 04:50:29;;;;;;;23.10;15.27;;;15.90;99.90;;;;;;4916572;29;20462;-70
2021/09/25 04:53:05;;;;;;;22.10;16.40;;;16.00;99.90;;;;;;4921234;29;20550;-71
2021/09/25 04:55:31;;;;;;;20.67;15.10;;;16.00;99.90;;;;;;4937531;29;20560;-72
2021/09/25 04:57:58;;;;;;;23.93;15.50;;;16.00;99.90;;;;;;4937326;29;20465;-72
2021/09/25 05:00:25;;;;;;;21.00;15.10;;;16.00;99.90;;;;;;4936681;29;20981;-72
2021/09/25 05:02:51;;;;;;;18.20;14.43;;;16.00;99.90;;;;;;4933791;29;20458;-72
2021/09/25 05:05:18;;;;;;;19.80;14.97;;;16.00;99.90;;;;;;4918114;29;20466;-72
2021/09/25 05:07:45;;;;;;;21.53;14.50;;;16.00;99.90;;;;;;4917042;29;20483;-72
2021/09/25 05:10:13;;;;;;;19.13;15.70;;;16.00;99.90;;;;;;4930056;29;20469;-72
2021/09/25 05:12:40;;;;;;;24.10;14.90;;;16.00;99.90;;;;;;4935419;29;20517;-72
2021/09/25 05:15:07;;;;;;;20.30;14.33;;;16.00;99.90;;;;;;4936833;29;20541;-72
2021/09/25 05:17:35;;;;;;;21.67;15.83;;;16.00;99.90;;;;;;4936986;29;20503;-72
2021/09/25 05:20:03;;;;;;;16.60;13.20;;;16.00;99.90;;;;;;4935295;29;20532;-70
2021/09/25 05:22:29;;;;;;;22.00;14.20;;;16.00;99.90;;;;;;4935598;29;20486;-70
2021/09/25 05:24:56;;;;;;;21.30;14.73;;;16.00;99.90;;;;;;4918733;29;20523;-71
2021/09/25 05:27:24;;;;;;;19.30;14.10;;;16.00;99.90;;;;;;4929473;29;20473;-71
2021/09/25 05:29:51;;;;;;;17.93;14.30;;;16.10;99.90;;;;;;4936049;29;20469;-71
2021/09/25 05:32:17;;;;;;;23.20;15.03;;;16.10;99.90;;;;;;4935238;29;20493;-71
2021/09/25 05:34:44;;;;;;;17.80;14.60;;;16.10;99.90;;;;;;4918130;29;20518;-71
2021/09/25 05:37:14;;;;;;;16.67;14.43;;;16.10;99.90;;;;;;4918195;29;20466;-72
2021/09/25 05:39:41;;;;;;;17.73;15.07;;;16.10;99.90;;;;;;4916630;29;20872;-72
2021/09/25 05:42:08;;;;;;;22.53;16.20;;;16.10;99.90;;;;;;4916075;29;20566;-71
2021/09/25 05:44:36;;;;;;;18.40;14.23;;;16.10;99.90;;;;;;4930636;29;20946;-72
2021/09/25 05:47:03;;;;;;;23.23;15.97;;;16.10;99.90;;;;;;4935491;29;20473;-72
2021/09/25 05:49:30;;;;;;;22.00;15.90;;;16.10;99.90;;;;;;4934296;29;21159;-70
2021/09/25 05:51:56;;;;;;;24.70;17.30;;;16.10;99.90;;;;;;4935617;29;20581;-70
2021/09/25 05:54:23;;;;;;;18.13;14.57;;;16.10;99.90;;;;;;4921222;29;20475;-70
2021/09/25 05:56:49;;;;;;;25.30;16.87;;;16.10;99.90;;;;;;4916301;29;20521;-70
2021/09/25 05:59:16;;;;;;;21.60;16.00;;;16.20;99.90;;;;;;4916019;29;20746;-70
2021/09/25 06:01:44;;;;;;;22.70;16.07;;;16.20;99.90;;;;;;4915349;29;20575;-70
2021/09/25 06:04:11;;;;;;;21.80;15.30;;;16.20;99.90;;;;;;4926228;29;20461;-71
2021/09/25 06:06:38;;;;;;;20.13;16.03;;;16.20;99.90;;;;;;4934621;29;20488;-71
2021/09/25 06:09:04;;;;;;;21.43;15.43;;;16.20;99.90;;;;;;4935421;29;20884;-70
2021/09/25 06:11:31;;;;;;;19.27;15.40;;;16.30;99.90;;;;;;4934540;29;20557;-71
2021/09/25 06:13:57;;;;;;;23.93;15.90;;;16.30;99.90;;;;;;4924690;29;20971;-71
2021/09/25 06:16:24;;;;;;;22.90;16.90;;;16.30;99.90;;;;;;4926635;29;20469;-72
2021/09/25 06:18:52;;;;;;;18.07;14.20;;;16.30;99.90;;;;;;4934127;29;20469;-71
2021/09/25 06:21:19;;;;;;;23.83;16.87;;;16.30;99.90;;;;;;4933892;29;20541;-72
2021/09/25 06:23:46;;;;;;;21.00;15.13;;;16.40;99.90;;;;;;4933557;29;20974;-71
2021/09/25 06:26:13;;;;;;;22.37;14.90;;;16.40;99.90;;;;;;4934470;29;20491;-71
2021/09/25 06:28:39;;;;;;;21.03;15.40;;;16.40;99.90;;;;;;4934857;29;20934;-71
2021/09/25 06:31:06;;;;;;;20.50;14.80;;;16.50;99.90;;;;;;4934613;29;20581;-71
2021/09/25 06:33:33;;;;;;;17.50;14.40;;;16.50;99.90;;;;;;4927699;29;20470;-71
2021/09/25 06:36:01;;;;;;;17.13;14.77;;;16.50;99.90;;;;;;4915410;29;20537;-71
2021/09/25 06:38:28;;;;;;;20.93;15.23;;;16.50;99.90;;;;;;4915386;29;20785;-70
2021/09/25 06:40:54;;;;;;;23.83;15.70;;;16.50;99.90;;;;;;4914676;29;20490;-70
2021/09/25 06:43:21;;;;;;;18.40;14.23;;;16.50;99.90;;;;;;4918450;29;20465;-70
2021/09/25 06:45:48;;;;;;;22.13;14.37;;;16.50;99.90;;;;;;4933878;29;20516;-70
2021/09/25 06:48:14;;;;;;;20.90;14.50;;;16.60;99.90;;;;;;4933700;29;20469;-71
2021/09/25 06:50:41;;;;;;;22.50;15.63;;;16.60;99.90;;;;;;4933410;29;20489;-71
2021/09/25 06:53:09;;;;;;;19.13;14.43;;;16.60;99.90;;;;;;4932605;29;20540;-68
2021/09/25 06:55:36;;;;;;;21.67;14.93;;;16.60;99.90;;;;;;4934032;29;20465;-71
2021/09/25 06:58:03;;;;;;;19.53;13.80;;;16.70;99.90;;;;;;4934695;29;20504;-71
2021/09/25 07:00:30;;;;;;;17.97;13.37;;;16.70;99.90;;;;;;4933870;29;20512;-68
2021/09/25 07:02:56;;;;;;;18.20;14.30;;;16.70;99.90;;;;;;4932262;29;20877;-68
2021/09/25 07:05:23;;;;;;;19.57;13.13;;;16.70;99.90;;;;;;4932845;29;20948;-70
2021/09/25 07:07:50;;;;;;;18.47;15.17;;;16.80;99.90;;;;;;4933550;29;20584;-69
2021/09/25 07:10:19;;;;;;;20.50;14.83;;;16.80;99.90;;;;;;4936411;29;20466;-69
2021/09/25 07:12:46;;;;;;;19.30;14.77;;;16.80;99.90;;;;;;4936806;29;20461;-69
2021/09/25 07:15:14;;;;;;;22.40;15.00;;;16.80;99.90;;;;;;4920284;29;20470;-69
2021/09/25 07:17:40;;;;;;;21.30;14.97;;;16.90;99.90;;;;;;4919095;29;20470;-69
2021/09/25 07:20:09;;;;;;;20.57;14.90;;;16.90;99.90;;;;;;4918969;29;20470;-69
2021/09/25 07:22:36;;;;;;;20.50;16.00;;;16.90;99.90;;;;;;4919717;29;20925;-69
2021/09/25 07:25:03;;;;;;;22.90;16.37;;;16.90;99.90;;;;;;4935888;29;20462;-69
2021/09/25 07:27:31;;;;;;;24.43;16.90;;;16.90;99.90;;;;;;4938332;29;20544;-71
2021/09/25 07:29:58;;;;;;;24.63;15.50;;;16.90;99.90;;;;;;4937529;29;20551;-71
2021/09/25 07:32:25;;;;;;;25.90;16.77;;;16.90;99.90;;;;;;4937433;29;20485;-70
2021/09/25 07:34:51;;;;;;;20.97;15.33;;;16.90;99.90;;;;;;4935973;29;20517;-71
2021/09/25 07:37:18;;;;;;;21.83;15.50;;;16.90;99.90;;;;;;4921134;29;20944;-70
2021/09/25 07:39:44;;;;;;;22.33;17.00;;;16.90;99.90;;;;;;4918239;29;21010;-71
2021/09/25 07:42:11;;;;;;;21.50;15.83;;;17.00;99.90;;;;;;4917699;29;21081;-71
2021/09/25 07:44:39;;;;;;;18.20;15.80;;;17.00;99.90;;;;;;4929047;29;20480;-71
2021/09/25 07:47:06;;;;;;;29.67;18.80;;;17.00;99.90;;;;;;4919891;29;20529;-70
2021/09/25 07:49:33;;;;;;;23.07;16.10;;;17.00;99.90;;;;;;4917294;29;20470;-70
2021/09/25 07:51:59;;;;;;;24.97;16.87;;;17.10;99.90;;;;;;4918514;29;20586;-71
2021/09/25 07:54:26;;;;;;;25.40;16.83;;;17.10;99.90;;;;;;4928333;29;20466;-70
2021/09/25 07:56:52;;;;;;;25.40;16.47;;;17.10;99.90;;;;;;4937321;29;20470;-73
2021/09/25 07:59:20;;;;;;;25.10;16.47;;;17.20;99.90;;;;;;4937258;29;20465;-72
2021/09/25 08:01:48;;;;;;;22.77;17.63;;;17.20;99.90;;;;;;4935821;29;20576;-72
2021/09/25 08:04:15;;;;;;;22.13;16.80;;;17.20;99.90;;;;;;4933271;29;20877;-74
2021/09/25 08:06:42;;;;;;;22.93;15.67;;;17.30;99.90;;;;;;4935108;29;20485;-73
2021/09/25 08:09:09;;;;;;;20.50;15.00;;;17.30;99.90;;;;;;4935770;29;20628;-73
2021/09/25 08:11:36;;;;;;;16.30;14.23;;;17.30;99.90;;;;;;4919776;29;20557;-73
2021/09/25 08:14:03;;;;;;;22.37;15.70;;;17.30;99.90;;;;;;4917538;29;20858;-73
2021/09/25 08:16:29;;;;;;;20.00;15.50;;;17.40;99.90;;;;;;4922449;29;20466;-72
2021/09/25 08:18:57;;;;;;;18.53;16.10;;;17.40;99.90;;;;;;4922544;29;20475;-72
2021/09/25 08:21:24;;;;;;;20.50;14.80;;;17.40;99.90;;;;;;4919763;29;20513;-72
2021/09/25 08:23:51;;;;;;;17.50;15.03;;;17.50;99.90;;;;;;4925263;29;20462;-71
2021/09/25 08:26:19;;;;;;;15.77;13.90;;;17.50;99.90;;;;;;4915807;29;20447;-71
2021/09/25 08:28:46;;;;;;;19.50;15.20;;;17.50;99.90;;;;;;4922318;29;20486;-72
2021/09/25 08:31:12;;;;;;;22.90;15.43;;;17.60;99.90;;;;;;4920491;29;20490;-71
2021/09/25 08:33:39;;;;;;;20.20;15.53;;;17.60;99.90;;;;;;4917443;29;20857;-68
2021/09/25 08:36:07;;;;;;;19.60;14.63;;;17.70;99.90;;;;;;4925405;29;20499;-69
2021/09/25 08:38:34;;;;;;;19.40;14.00;;;17.60;99.90;;;;;;4931156;29;20938;-68
2021/09/25 08:41:01;;;;;;;19.17;14.70;;;17.60;99.90;;;;;;4927264;29;20539;-68
2021/09/25 08:43:28;;;;;;;23.10;15.33;;;17.60;99.90;;;;;;4916144;29;20541;-69
2021/09/25 08:45:59;;;;;;;19.17;14.87;;;17.60;99.90;;;;;;4928111;29;20463;-67
2021/09/25 08:48:27;;;;;;;21.47;15.27;;;17.70;99.90;;;;;;4935111;29;20478;-67
2021/09/25 08:50:54;;;;;;;25.70;17.60;;;17.70;99.90;;;;;;4934757;28;20492;-68
2021/09/25 08:53:22;;;;;;;25.57;16.07;;;17.70;99.90;;;;;;4930790;29;20540;-68
2021/09/25 08:55:49;;;;;;;21.67;16.53;;;17.70;99.90;;;;;;4934963;29;20469;-68
2021/09/25 08:58:15;;;;;;;17.47;14.77;;;17.70;99.90;;;;;;4935073;29;20532;-68
2021/09/25 09:00:44;;;;;;;22.30;17.70;;;17.80;99.90;;;;;;4899419;29;1015568;-68
2021/09/25 09:03:31;;;;;;;23.63;17.37;;;17.70;99.90;;;;;;4916797;29;20234;-68
2021/09/25 09:06:08;;;;;;;20.70;16.37;;;17.80;99.90;;;;;;4916592;29;20471;-68
2021/09/25 09:08:37;;;;;;;22.60;15.90;;;17.80;99.90;;;;;;4928552;29;20521;-68
2021/09/25 09:11:06;;;;;;;25.60;16.80;;;17.80;99.90;;;;;;4934755;29;20486;-68
2021/09/25 09:13:33;;;;;;;20.53;16.70;;;17.90;99.90;;;;;;4927982;29;20469;-69
2021/09/25 09:16:03;;;;;;;21.57;17.00;;;17.90;99.90;;;;;;4917516;29;20466;-68
2021/09/25 09:18:31;;;;;;;21.03;16.47;;;17.90;99.90;;;;;;4935762;29;20560;-68
2021/09/25 09:21:08;;;;;;;26.27;16.77;;;17.90;99.90;;;;;;4934726;28;20493;-69
2021/09/25 09:23:37;;;;;;;24.60;18.10;;;17.90;99.90;;;;;;4931158;29;20497;-68
2021/09/25 09:26:05;;;;;;;20.73;17.73;;;17.90;99.90;;;;;;4917283;29;20541;-69
2021/09/25 09:28:33;;;;;;;20.60;16.17;;;18.00;99.90;;;;;;4928595;29;20471;-69
2021/09/25 09:31:02;;;;;;;20.80;16.90;;;18.00;99.90;;;;;;4935226;29;20985;-69
2021/09/25 09:33:31;;;;;;;27.43;16.87;;;18.00;99.90;;;;;;4925672;29;21026;-69
2021/09/25 09:36:12;;;;;;;21.63;16.70;;;18.10;99.90;;;;;;4915236;29;20470;-68
2021/09/25 09:38:41;;;;;;;18.60;16.30;;;18.20;99.90;;;;;;4935094;29;20521;-69
2021/09/25 09:41:09;;;;;;;22.47;15.47;;;18.20;99.90;;;;;;4923607;29;20545;-68
2021/09/25 09:43:36;;;;;;;20.70;15.50;;;18.20;99.90;;;;;;4916307;29;20727;-68
2021/09/25 09:46:03;;;;;;;17.40;15.20;;;18.20;99.90;;;;;;4916260;29;20625;-69
2021/09/25 09:48:30;;;;;;;18.27;14.93;;;18.30;99.90;;;;;;4925253;29;20469;-68
2021/09/25 09:50:58;;;;;;;19.20;15.47;;;18.30;99.90;;;;;;4935757;29;20507;-67
2021/09/25 09:53:24;;;;;;;18.47;15.80;;;18.40;99.90;;;;;;4933818;29;20462;-67
2021/09/25 09:55:52;;;;;;;17.00;14.83;;;18.40;99.90;;;;;;4935049;29;20477;-67
2021/09/25 09:58:19;;;;;;;17.03;15.33;;;18.40;99.90;;;;;;4934893;29;20831;-68
2021/09/25 10:00:46;;;;;;;17.70;15.03;;;18.40;99.90;;;;;;4933848;29;20505;-70
2021/09/25 10:03:13;;;;;;;17.43;14.00;;;18.50;99.90;;;;;;4927705;29;20485;-70
2021/09/25 10:05:40;;;;;;;18.73;13.90;;;18.50;99.90;;;;;;4915742;29;20498;-70
2021/09/25 10:08:08;;;;;;;17.60;14.53;;;18.60;99.90;;;;;;4917625;29;20983;-70
2021/09/25 10:10:36;;;;;;;15.77;14.17;;;18.60;99.90;;;;;;4919564;29;20486;-70
2021/09/25 10:13:04;;;;;;;18.60;16.27;;;18.70;99.90;;;;;;4924974;29;20458;-71
2021/09/25 10:15:31;;;;;;;15.03;13.57;;;18.90;99.90;;;;;;4937932;29;20533;-69
2021/09/25 10:17:58;;;;;;;19.40;13.20;;;19.10;99.90;;;;;;4940075;29;20469;-69
2021/09/25 10:20:25;;;;;;;15.57;13.40;;;19.20;99.90;;;;;;4931054;29;21060;-69
2021/09/25 10:22:53;;;;;;;13.20;11.90;;;19.40;99.90;;;;;;4920164;29;20561;-68
2021/09/25 10:25:20;;;;;;;13.50;11.00;;;19.60;99.90;;;;;;4935032;29;20888;-68
2021/09/25 10:27:47;;;;;;;12.90;11.60;;;19.80;99.90;;;;;;4930549;29;20966;-68
2021/09/25 10:30:16;;;;;;;12.90;11.50;;;19.90;99.90;;;;;;4915784;29;20990;-68
2021/09/25 10:32:44;;;;;;;13.60;12.10;;;20.00;99.90;;;;;;4920839;29;20458;-69
2021/09/25 10:35:14;;;;;;;13.13;11.30;;;20.10;99.90;;;;;;4933375;29;20462;-69
2021/09/25 10:37:43;;;;;;;11.60;10.50;;;20.20;99.90;;;;;;4934445;29;20516;-69
2021/09/25 10:40:14;;;;;;;11.73;10.63;;;20.30;99.90;;;;;;4934565;29;20462;-70
2021/09/25 10:42:46;;;;;;;10.87;9.83;;;20.60;99.90;;;;;;4915983;29;20498;-69
2021/09/25 10:45:24;;;;;;;10.83;9.97;;;20.70;99.90;;;;;;4917792;29;20831;-69
2021/09/25 10:48:09;;;;;;;9.60;8.90;;;20.90;99.90;;;;;;4926907;29;20591;-69
2021/09/25 10:50:37;;;;;;;11.20;10.10;;;21.20;99.90;;;;;;4933552;29;20512;-69
2021/09/25 10:53:10;;;;;;;11.27;10.23;;;21.30;99.90;;;;;;4928131;29;20458;-68
2021/09/25 10:55:38;;;;;;;11.50;10.17;;;21.40;99.90;;;;;;4929268;29;20482;-68
2021/09/25 10:58:28;;;;;;;10.33;9.20;;;21.40;99.90;;;;;;4932679;29;20472;-68
2021/09/25 11:01:09;;;;;;;9.23;8.40;;;21.50;99.90;;;;;;4934254;29;20677;-69
2021/09/25 11:04:05;;;;;;;10.33;8.10;;;21.50;99.90;;;;;;4933583;29;20489;-70
2021/09/25 11:06:43;;;;;;;8.53;7.83;;;21.40;99.90;;;;;;4915899;29;20504;-69
2021/09/25 11:09:16;;;;;;;9.47;8.50;;;21.30;99.90;;;;;;4928883;29;20848;-69
2021/09/25 11:11:50;;;;;;;7.90;7.30;;;21.10;99.90;;;;;;4934695;29;20485;-68
2021/09/25 11:14:21;;;;;;;7.83;7.13;;;21.00;99.90;;;;;;4924907;29;20455;-69
2021/09/25 11:16:55;;;;;;;7.33;6.67;;;21.00;99.90;;;;;;4915907;29;20470;-71
2021/09/25 11:19:47;;;;;;;8.03;7.40;;;21.00;99.90;;;;;;4915128;29;20465;-71
2021/09/25 11:22:21;;;;;;;7.40;6.77;;;21.10;99.90;;;;;;4933640;29;20505;-71
2021/09/25 11:24:50;;;;;;;6.40;5.90;;;21.20;99.90;;;;;;4921636;29;20524;-71
2021/09/25 11:27:19;;;;;;;6.47;5.90;;;21.30;99.90;;;;;;4927089;29;20810;-70
2021/09/25 11:30:02;;;;;;;6.00;5.70;;;21.30;99.90;;;;;;4927477;29;20474;-71
2021/09/25 11:32:31;;;;;;;6.57;6.23;;;21.40;99.90;;;;;;4918182;29;20489;-69
2021/09/25 11:34:59;;;;;;;6.07;5.50;;;21.50;99.90;;;;;;4923676;29;20541;-68
2021/09/25 11:37:29;;;;;;;5.47;5.17;;;21.50;99.90;;;;;;4930407;29;20465;-68
2021/09/25 11:39:57;;;;;;;7.10;6.57;;;21.60;99.90;;;;;;4934288;29;20488;-69
2021/09/25 11:42:26;;;;;;;6.97;6.60;;;21.50;99.90;;;;;;4919011;29;20482;-68
2021/09/25 11:44:55;;;;;;;7.60;7.00;;;21.50;99.90;;;;;;4914950;29;20470;-68
2021/09/25 11:47:25;;;;;;;8.10;7.57;;;21.50;99.90;;;;;;4915479;29;20525;-66
2021/09/25 11:49:54;;;;;;;7.57;7.07;;;21.50;99.90;;;;;;4914112;29;20466;-67
2021/09/25 11:52:21;;;;;;;7.60;7.20;;;21.50;99.90;;;;;;4915207;29;20601;-67
2021/09/25 11:54:49;;;;;;;7.00;6.50;;;21.50;99.90;;;;;;4915075;29;20967;-69
2021/09/25 11:57:18;;;;;;;8.13;7.37;;;21.40;99.90;;;;;;4930514;29;20477;-68
2021/09/25 11:59:46;;;;;;;7.60;6.90;;;21.40;99.90;;;;;;4923561;29;20465;-68
2021/09/25 12:02:39;;;;;;;8.83;7.30;;;21.40;99.90;;;;;;4926004;29;21048;-69
2021/09/25 12:05:09;;;;;;;8.53;7.70;;;21.40;99.90;;;;;;4931338;29;21150;-68
2021/09/25 12:07:40;;;;;;;9.40;8.60;;;21.50;99.90;;;;;;4934743;29;20923;-69
2021/09/25 12:10:08;;;;;;;8.53;8.00;;;21.40;99.90;;;;;;4924109;29;21010;-68
2021/09/25 12:12:35;;;;;;;8.40;7.60;;;21.30;99.90;;;;;;4918424;29;20864;-69
2021/09/25 12:15:01;;;;;;;8.57;7.90;;;21.40;99.90;;;;;;4917639;29;20478;-69
2021/09/25 12:17:29;;;;;;;7.57;6.87;;;21.40;99.90;;;;;;4933611;29;20477;-70
2021/09/25 12:20:13;;;;;;;8.33;7.53;;;21.30;99.90;;;;;;4919233;29;20471;-67
2021/09/25 12:22:44;;;;;;;7.10;6.70;;;21.30;99.90;;;;;;4916787;29;20479;-69
2021/09/25 12:25:11;;;;;;;7.30;6.80;;;21.30;99.90;;;;;;4917296;29;20474;-67
2021/09/25 12:27:41;;;;;;;7.83;7.13;;;21.30;99.90;;;;;;4936017;29;20930;-68
2021/09/25 12:30:09;;;;;;;7.30;6.60;;;21.30;99.90;;;;;;4932750;29;20473;-68
2021/09/25 12:32:36;;;;;;;7.40;7.00;;;21.40;99.90;;;;;;4929350;29;20588;-68
2021/09/25 12:35:04;;;;;;;6.90;6.50;;;21.40;99.90;;;;;;4916933;29;20932;-68
2021/09/25 12:37:30;;;;;;;7.53;7.03;;;21.50;99.90;;;;;;4926758;28;20554;-69
2021/09/25 12:40:00;;;;;;;7.30;6.80;;;21.60;99.90;;;;;;4934419;29;20528;-70
2021/09/25 12:42:27;;;;;;;7.20;6.60;;;21.60;99.90;;;;;;4933688;29;20489;-70
2021/09/25 12:45:00;;;;;;;6.10;5.83;;;21.60;99.90;;;;;;4934020;29;20474;-68
2021/09/25 12:47:31;;;;;;;6.80;6.30;;;21.70;99.90;;;;;;4930198;29;20561;-70
2021/09/25 12:50:16;;;;;;;7.03;6.53;;;21.70;99.90;;;;;;4932914;29;20469;-70
2021/09/25 12:52:43;;;;;;;6.33;5.90;;;21.80;99.90;;;;;;4933599;29;20547;-70
2021/09/25 12:55:15;;;;;;;5.97;5.50;;;21.90;99.90;;;;;;4933643;29;20958;-70
2021/09/25 12:57:42;;;;;;;6.43;6.03;;;21.80;99.90;;;;;;4932440;29;20626;-70
2021/09/25 13:00:10;;;;;;;6.40;6.00;;;21.80;99.90;;;;;;4933045;29;20556;-70
2021/09/25 13:02:37;;;;;;;6.50;6.00;;;21.80;99.90;;;;;;4932529;29;21237;-70
2021/09/25 13:05:06;;;;;;;5.90;5.30;;;21.80;99.90;;;;;;4932277;29;20485;-68
2021/09/25 13:07:34;;;;;;;6.80;6.20;;;21.80;99.90;;;;;;4933509;29;20476;-70
2021/09/25 13:10:03;;;;;;;6.10;5.70;;;21.90;99.90;;;;;;4932732;29;20465;-70
2021/09/25 13:12:33;;;;;;;6.13;5.73;;;21.80;99.90;;;;;;4922257;28;20890;-69
2021/09/25 13:15:03;;;;;;;6.43;5.90;;;21.70;99.90;;;;;;4921371;29;20927;-70
2021/09/25 13:17:31;;;;;;;5.50;5.30;;;21.70;99.90;;;;;;4922980;29;20469;-69
2021/09/25 13:19:59;;;;;;;6.10;5.70;;;21.70;99.90;;;;;;4925557;29;20974;-70
2021/09/25 13:22:25;;;;;;;6.03;5.67;;;21.70;99.90;;;;;;4927911;29;20488;-70
2021/09/25 13:24:52;;;;;;;5.80;5.50;;;21.70;99.90;;;;;;4935616;29;20473;-70
2021/09/25 13:27:19;;;;;;;6.30;5.80;;;21.60;99.90;;;;;;4921045;29;20482;-70
2021/09/25 13:29:47;;;;;;;5.37;5.00;;;21.70;99.90;;;;;;4919476;29;20469;-70
2021/09/25 13:32:14;;;;;;;7.50;5.90;;;21.70;99.90;;;;;;4924526;29;20547;-69
2021/09/25 13:34:41;;;;;;;5.53;5.13;;;21.70;99.90;;;;;;4931059;29;20493;-70
2021/09/25 13:37:08;;;;;;;5.87;5.70;;;21.70;99.90;;;;;;4927801;29;20465;-70
2021/09/25 13:39:36;;;;;;;5.60;5.30;;;21.70;99.90;;;;;;4918543;28;20474;-70
2021/09/25 13:42:04;;;;;;;5.90;5.60;;;21.70;99.90;;;;;;4921688;29;20489;-69
2021/09/25 13:44:30;;;;;;;7.13;6.43;;;21.80;99.90;;;;;;4924306;29;20462;-70
2021/09/25 13:46:58;;;;;;;5.63;5.23;;;21.90;99.90;;;;;;4917306;29;20518;-70
2021/09/25 13:49:25;;;;;;;5.00;4.80;;;21.90;99.90;;;;;;4920813;29;20466;-70
2021/09/25 13:51:52;;;;;;;5.00;4.90;;;21.90;99.90;;;;;;4924067;29;20482;-70
2021/09/25 13:54:19;;;;;;;5.47;5.23;;;21.90;99.90;;;;;;4913654;29;20490;-70
2021/09/25 13:56:45;;;;;;;4.40;4.20;;;21.90;99.90;;;;;;4919619;29;20855;-71
2021/09/25 13:59:12;;;;;;;5.13;4.83;;;21.90;99.90;;;;;;4916888;29;20474;-70
2021/09/25 14:01:40;;;;;;;4.10;3.90;;;21.90;99.90;;;;;;4926688;29;20505;-69
2021/09/25 14:04:08;;;;;;;5.50;4.70;;;21.90;99.90;;;;;;4920459;29;20510;-69
2021/09/25 14:06:35;;;;;;;5.03;4.47;;;21.90;99.90;;;;;;4923988;29;20609;-69
2021/09/25 14:09:03;;;;;;;4.83;4.50;;;21.90;99.90;;;;;;4933397;28;20509;-71
2021/09/25 14:11:30;;;;;;;4.90;4.60;;;21.90;99.90;;;;;;4930421;29;20497;-69
2021/09/25 14:13:57;;;;;;;4.90;4.60;;;21.90;99.90;;;;;;4924143;29;20494;-69
2021/09/25 14:16:23;;;;;;;4.33;4.23;;;21.90;99.90;;;;;;4925790;29;20958;-69
2021/09/25 14:18:50;;;;;;;4.30;4.20;;;21.90;99.90;;;;;;4927806;29;21033;-69
2021/09/25 14:21:19;;;;;;;4.80;4.60;;;21.80;99.90;;;;;;4913851;29;20509;-69
2021/09/25 14:23:46;;;;;;;4.63;4.43;;;21.70;99.90;;;;;;4917373;29;20465;-69
2021/09/25 14:26:13;;;;;;;5.30;4.97;;;21.70;99.90;;;;;;4930677;29;20468;-69
2021/09/25 14:28:40;;;;;;;4.43;4.10;;;21.70;99.90;;;;;;4923146;29;20465;-69
2021/09/25 14:31:07;;;;;;;3.83;3.63;;;21.60;99.90;;;;;;4928269;29;20490;-69
2021/09/25 14:33:37;;;;;;;4.50;4.30;;;21.50;99.90;;;;;;4918305;29;20633;-69
2021/09/25 14:36:04;;;;;;;3.70;3.60;;;21.50;99.90;;;;;;4933221;29;20481;-69
2021/09/25 14:38:32;;;;;;;4.10;3.80;;;21.50;99.90;;;;;;4917628;29;20477;-69
2021/09/25 14:41:00;;;;;;;4.53;4.40;;;21.60;99.90;;;;;;4923299;29;20490;-68
2021/09/25 14:43:27;;;;;;;4.40;4.13;;;21.60;99.90;;;;;;4924809;29;20462;-69
2021/09/25 14:45:53;;;;;;;4.10;3.90;;;21.60;99.90;;;;;;4923148;29;20546;-69
2021/09/25 14:48:21;;;;;;;4.97;4.57;;;21.50;99.90;;;;;;4915063;29;20533;-69
2021/09/25 14:50:47;;;;;;;4.70;4.40;;;21.50;99.90;;;;;;4926295;28;20992;-69
2021/09/25 14:53:14;;;;;;;3.80;3.70;;;21.50;99.90;;;;;;4934811;29;20531;-71
2021/09/25 14:55:42;;;;;;;4.70;4.40;;;21.40;99.90;;;;;;4921475;29;20536;-70
2021/09/25 14:58:09;;;;;;;4.20;4.10;;;21.40;99.90;;;;;;4931303;29;20569;-70
2021/09/25 15:00:35;;;;;;;4.30;4.10;;;21.40;99.90;;;;;;4930700;29;20490;-69
2021/09/25 15:03:02;;;;;;;4.77;4.40;;;21.40;99.90;;;;;;4917852;29;20991;-69
2021/09/25 15:05:29;;;;;;;4.70;4.30;;;21.30;99.90;;;;;;4912500;29;20473;-70
2021/09/25 15:07:55;;;;;;;4.50;4.10;;;21.20;99.90;;;;;;4918405;29;20477;-70
2021/09/25 15:10:22;;;;;;;4.17;3.87;;;21.20;99.90;;;;;;4929067;29;20477;-71
2021/09/25 15:12:50;;;;;;;4.77;4.47;;;21.20;99.90;;;;;;4933925;29;20471;-69
2021/09/25 15:15:17;;;;;;;4.63;4.50;;;21.10;99.90;;;;;;4931008;29;20497;-69
2021/09/25 15:17:43;;;;;;;4.00;3.70;;;21.10;99.90;;;;;;4936013;28;20466;-69
2021/09/25 15:20:11;;;;;;;4.07;3.77;;;21.20;99.90;;;;;;4933571;29;20558;-69
2021/09/25 15:22:37;;;;;;;3.57;3.20;;;21.10;99.90;;;;;;4936637;29;20465;-68
2021/09/25 15:25:05;;;;;;;3.00;2.90;;;21.10;99.90;;;;;;4914077;29;20621;-68
2021/09/25 15:27:32;;;;;;;3.10;3.00;;;21.10;99.90;;;;;;4926930;29;20489;-68
2021/09/25 15:30:00;;;;;;;3.23;3.00;;;21.10;99.90;;;;;;4926741;29;20884;-70
2021/09/25 15:32:26;;;;;;;3.10;2.87;;;21.10;99.90;;;;;;4927506;29;20516;-70
2021/09/25 15:34:53;;;;;;;2.80;2.70;;;21.10;99.90;;;;;;4928623;29;21078;-68
2021/09/25 15:37:21;;;;;;;4.30;2.53;;;21.00;99.90;;;;;;4926583;29;21013;-70
2021/09/25 15:39:48;;;;;;;3.00;2.83;;;21.00;99.90;;;;;;4936107;29;20478;-70
2021/09/25 15:42:15;;;;;;;2.80;2.80;;;21.00;99.90;;;;;;4931748;29;20489;-69
2021/09/25 15:44:41;;;;;;;2.83;2.70;;;21.00;99.90;;;;;;4935036;29;20850;-70
2021/09/25 15:47:10;;;;;;;5.40;3.30;;;20.90;99.90;;;;;;4935461;29;20465;-70
2021/09/25 15:49:36;;;;;;;2.93;2.83;;;20.90;99.90;;;;;;4934339;29;20868;-69
2021/09/25 15:52:04;;;;;;;2.97;2.97;;;20.80;99.90;;;;;;4927991;29;20489;-69
2021/09/25 15:54:30;;;;;;;4.00;2.90;;;20.80;99.90;;;;;;4921255;29;20513;-70
2021/09/25 15:56:57;;;;;;;2.87;2.77;;;20.70;99.90;;;;;;4932470;29;20472;-69
2021/09/25 15:59:24;;;;;;;3.30;3.20;;;20.70;99.90;;;;;;4938027;29;20544;-70
2021/09/25 16:01:50;;;;;;;3.10;3.00;;;20.70;99.90;;;;;;4937376;28;20560;-70
2021/09/25 16:04:22;;;;;;;3.10;3.00;;;20.70;99.90;;;;;;4936578;29;20882;-70
2021/09/25 16:06:50;;;;;;;3.43;3.20;;;20.70;99.90;;;;;;4932886;29;20469;-70
2021/09/25 16:09:17;;;;;;;3.43;3.23;;;20.60;99.90;;;;;;4925321;29;20517;-70
2021/09/25 16:11:43;;;;;;;3.40;3.30;;;20.60;99.90;;;;;;4918524;29;20944;-70
2021/09/25 16:14:10;;;;;;;3.10;3.00;;;20.50;99.90;;;;;;4937593;29;20893;-68
2021/09/25 16:16:36;;;;;;;3.33;3.00;;;20.40;99.90;;;;;;4937689;29;20474;-70
2021/09/25 16:19:03;;;;;;;3.93;3.70;;;20.30;99.90;;;;;;4922382;29;20538;-70
2021/09/25 16:21:31;;;;;;;3.60;3.50;;;20.20;99.90;;;;;;4915843;29;20538;-70
2021/09/25 16:23:58;;;;;;;4.67;3.67;;;20.20;99.90;;;;;;4916567;29;20498;-70
2021/09/25 16:26:25;;;;;;;4.27;3.80;;;20.10;99.90;;;;;;4932074;29;20474;-69
2021/09/25 16:28:51;;;;;;;4.27;3.97;;;20.00;99.90;;;;;;4916047;29;21030;-70
2021/09/25 16:31:18;;;;;;;3.87;3.70;;;20.00;99.90;;;;;;4928603;29;20481;-70
2021/09/25 16:33:45;;;;;;;3.90;3.80;;;19.90;99.90;;;;;;4933741;29;20480;-71
2021/09/25 16:36:12;;;;;;;5.17;4.80;;;19.80;99.90;;;;;;4923544;29;20479;-69
2021/09/25 16:38:40;;;;;;;4.60;4.40;;;19.80;99.90;;;;;;4932704;29;20477;-70
2021/09/25 16:41:07;;;;;;;4.90;4.60;;;19.70;99.90;;;;;;4929327;29;20482;-69